Lancaster, NY

1:14 AM EST on January 31, 2015 (GMT -0500)
Bullis Road - 1 Mile West of Bowen Rd | Change Station
CLOSE
Current Station
Personal Weather Station
Location: Elma, NY
Elevation: 764 ft
Nearby Weather Stations

Elev 764 ft 42.84 °N, 78.66 °W | Updated 2 seconds ago

Overcast
Overcast
4.8 °F
Feels Like -2 °F
N
3.5
Wind Variable Wind from NW
Gusts 6.9 mph

Today
High -- | Low -- °F
--% Chance of Precip.
Yesterday
High -- | Low -- °F
Precip. -- in
7:30 AM 5:25 PM
Waxing Gibbous, 87% visible
Pressure 30.38 in
Visibility 9.0 miles
Clouds Scattered Clouds 2200 ft
Mostly Cloudy 2700 ft
Windchill -2 °F
Dew Point -1 °F
Humidity 78%
Rainfall 0.00 in
Snow Depth Not available.
UV 0 out of 12
Pollen .10 out of 12
Air Quality Not available.
Flu Activity Not available.
METAR KBUF 310554Z COR 26007KT 9SM -SN SCT022 BKN027 M13/M17 A3033 RMK AO2 SLP288 P0000 60000 4/006 T11331167 11106 21133 58002

More Conditions Fewer Conditions

Pressure 30.38 in
Visibility 9.0 miles
Clouds Scattered Clouds 2200 ft
Mostly Cloudy 2700 ft
Windchill -2 °F
Dew Point -1 °F
Humidity 78%
Rainfall 0.00 in
Snow Depth Not available.
UV 0 out of 12
Pollen .10 out of 12
Air Quality Not available.
Flu Activity Not available.
METAR KBUF 310554Z COR 26007KT 9SM -SN SCT022 BKN027 M13/M17 A3033 RMK AO2 SLP288 P0000 60000 4/006 T11331167 11106 21133 58002

More Conditions Fewer Conditions

10-Day Weather Forecast

Almanac

Astronomy

Jan. 31, 2015 Rise Set
Actual Time
Civil Twilight
Nautical Twilight
Astronomical Twilight
Moon
Length of Visible Light
Length of Day
Tomorrow will be .
, % of the Moon is Illuminated

Today's Extremes

State Highs State Lows

Community

WunderPhotos

Upload Photos

1,792,013 photos uploaded!

WunderBlogs® & News

Nearby

Air Quality

  Air Quality AQ Index Pollutant
Not available.

Snow Depth

Station Depth Elevation

Earthquake Activity

City Distance Mag. Time & Date
Minimum magnitude displayed is 2.5.

Coastal Water Temperatures

Place Temperature

Nearby Weather Stations